Time;durP1;ratioP1;P1;durP2;ratioP2;P2;SDS_P1;SDS_P2;PMS_P1;PMS_P2;Temp;Humidity;BMP_temperature;BMP_pressure;BME280_temperature;BME280_humidity;BME280_pressure;Samples;Min_cycle;Max_cycle;Signal;HPM_P1;HPM_P2
2020/12/26 00:01:11;;;;;;;19.55;10.20;;;1.80;94.70;;;;;;5048277;28;20385;-80
2020/12/26 00:03:37;;;;;;;20.13;10.05;;;1.80;95.00;;;;;;5050148;28;20481;-80
2020/12/26 00:06:03;;;;;;;17.73;9.55;;;1.90;94.70;;;;;;5052215;28;20793;-79
2020/12/26 00:08:28;;;;;;;16.17;9.30;;;1.90;94.60;;;;;;5051799;28;20417;-81
2020/12/26 00:10:54;;;;;;;24.98;9.77;;;1.90;94.50;;;;;;5053065;28;20382;-81
2020/12/26 00:13:20;;;;;;;20.95;9.40;;;1.90;94.30;;;;;;5053324;28;20400;-79
2020/12/26 00:15:45;;;;;;;20.70;9.23;;;1.90;94.60;;;;;;5053113;28;20385;-79
2020/12/26 00:18:11;;;;;;;21.37;8.57;;;1.90;94.30;;;;;;5052610;28;20480;-80
2020/12/26 00:20:37;;;;;;;19.27;8.75;;;1.90;94.40;;;;;;5052903;28;20378;-81
2020/12/26 00:23:02;;;;;;;20.17;9.00;;;1.90;94.40;;;;;;5052734;28;20711;-79
2020/12/26 00:25:28;;;;;;;27.83;9.93;;;1.90;94.20;;;;;;5053170;28;20700;-79
2020/12/26 00:27:53;;;;;;;23.17;9.48;;;1.90;94.20;;;;;;5052472;28;20409;-80
2020/12/26 00:30:19;;;;;;;16.17;8.60;;;1.80;94.60;;;;;;5052578;28;20385;-80
2020/12/26 00:32:45;;;;;;;19.70;9.50;;;1.70;94.80;;;;;;5052581;28;20373;-79
2020/12/26 00:35:10;;;;;;;22.02;10.00;;;1.90;94.60;;;;;;5052577;28;20858;-80
2020/12/26 00:37:36;;;;;;;17.70;8.33;;;1.80;94.60;;;;;;5034230;28;20418;-79
2020/12/26 00:40:02;;;;;;;24.67;9.53;;;1.90;94.50;;;;;;5034714;28;20398;-79
2020/12/26 00:42:27;;;;;;;23.50;9.37;;;1.90;94.50;;;;;;5034627;28;20845;-81
2020/12/26 00:44:53;;;;;;;21.97;10.23;;;2.00;94.30;;;;;;5052461;28;20472;-80
2020/12/26 00:47:18;;;;;;;25.90;11.20;;;1.90;94.40;;;;;;5052151;28;20377;-79
2020/12/26 00:49:44;;;;;;;21.60;11.20;;;1.90;94.50;;;;;;5052022;28;20424;-79
2020/12/26 00:52:10;;;;;;;32.83;12.82;;;1.90;94.70;;;;;;5052523;28;20385;-81
2020/12/26 00:54:35;;;;;;;20.02;11.48;;;1.90;94.90;;;;;;5051953;28;20385;-80
2020/12/26 00:57:01;;;;;;;31.00;14.10;;;1.90;94.80;;;;;;5034178;28;20484;-80
2020/12/26 00:59:26;;;;;;;25.85;13.25;;;1.90;94.70;;;;;;5052158;28;20385;-79
2020/12/26 01:01:53;;;;;;;30.15;13.38;;;1.90;94.80;;;;;;5052475;28;20389;-80
2020/12/26 01:04:19;;;;;;;28.42;14.00;;;1.90;94.60;;;;;;5051299;28;20480;-80
2020/12/26 01:06:45;;;;;;;24.33;13.83;;;1.90;94.80;;;;;;5051143;28;20449;-79
2020/12/26 01:09:10;;;;;;;31.17;14.33;;;1.90;94.80;;;;;;5042226;28;20405;-79
2020/12/26 01:11:36;;;;;;;32.90;14.68;;;1.80;95.10;;;;;;5051271;28;20814;-79
2020/12/26 01:14:01;;;;;;;25.83;12.60;;;1.80;95.00;;;;;;5052509;28;20385;-81
2020/12/26 01:16:27;;;;;;;25.98;14.27;;;1.90;95.00;;;;;;5049437;28;20436;-79
2020/12/26 01:18:53;;;;;;;27.85;13.52;;;1.90;94.70;;;;;;5051601;28;20388;-80
2020/12/26 01:21:18;;;;;;;32.60;14.35;;;1.90;94.90;;;;;;5052005;28;20850;-80
2020/12/26 01:23:44;;;;;;;28.88;13.65;;;1.90;94.80;;;;;;5052426;28;20378;-81
2020/12/26 01:26:09;;;;;;;27.10;13.02;;;1.90;94.60;;;;;;5051875;28;20472;-79
2020/12/26 01:28:36;;;;;;;32.33;14.27;;;1.90;94.80;;;;;;5051908;28;20406;-79
2020/12/26 01:31:01;;;;;;;35.22;14.90;;;1.90;94.60;;;;;;5051982;28;20727;-80
2020/12/26 01:33:27;;;;;;;28.92;13.85;;;1.90;94.80;;;;;;5051818;28;20438;-80
2020/12/26 01:35:52;;;;;;;27.05;13.15;;;1.80;94.90;;;;;;5050671;28;20468;-80
2020/12/26 01:38:18;;;;;;;27.30;12.55;;;1.90;94.70;;;;;;5051113;28;20386;-79
2020/12/26 01:40:51;;;;;;;29.80;13.05;;;1.90;94.90;;;;;;5051907;28;20374;-79
2020/12/26 01:43:17;;;;;;;23.75;12.48;;;1.90;94.70;;;;;;5051766;28;20410;-79
2020/12/26 01:45:43;;;;;;;26.55;12.88;;;1.90;94.80;;;;;;5051994;28;20385;-80
2020/12/26 01:48:14;;;;;;;24.75;11.73;;;1.90;94.70;;;;;;5051093;28;20406;-79
2020/12/26 01:50:40;;;;;;;28.52;11.65;;;1.90;94.80;;;;;;5050504;28;20503;-78
2020/12/26 01:53:06;;;;;;;24.97;11.63;;;1.90;94.90;;;;;;5051446;28;20461;-79
2020/12/26 01:55:32;;;;;;;23.10;10.30;;;2.00;94.70;;;;;;5050489;28;21068;-79
2020/12/26 01:57:58;;;;;;;22.35;10.77;;;2.00;94.30;;;;;;5051114;28;20728;-78
2020/12/26 02:00:23;;;;;;;23.87;10.13;;;1.90;94.50;;;;;;5050153;28;20386;-78
2020/12/26 02:02:49;;;;;;;20.03;10.53;;;2.00;94.30;;;;;;5051217;28;20381;-79
2020/12/26 02:05:15;;;;;;;22.27;9.70;;;2.10;94.20;;;;;;5051263;28;20389;-80
2020/12/26 02:07:43;;;;;;;25.05;9.57;;;2.00;94.10;;;;;;5050964;28;20835;-81
2020/12/26 02:10:09;;;;;;;18.40;9.60;;;2.00;94.10;;;;;;5050971;28;20520;-79
2020/12/26 02:12:35;;;;;;;17.17;8.93;;;2.00;94.00;;;;;;5051080;28;20464;-79
2020/12/26 02:15:00;;;;;;;16.07;8.63;;;2.00;94.30;;;;;;5049899;28;20497;-78
2020/12/26 02:17:27;;;;;;;16.00;8.07;;;2.00;94.30;;;;;;5049206;28;20408;-79
2020/12/26 02:19:53;;;;;;;15.50;7.72;;;2.00;94.10;;;;;;5049511;28;20399;-78
2020/12/26 02:22:19;;;;;;;20.27;8.32;;;2.00;94.00;;;;;;5051037;28;20660;-79
2020/12/26 02:24:44;;;;;;;19.87;8.37;;;2.00;93.90;;;;;;5050705;28;20751;-79
2020/12/26 02:27:10;;;;;;;15.30;8.13;;;2.00;94.00;;;;;;5050410;28;20388;-80
2020/12/26 02:29:36;;;;;;;14.65;7.80;;;2.00;94.00;;;;;;5050665;28;20466;-78
2020/12/26 02:32:02;;;;;;;17.83;8.70;;;2.00;93.80;;;;;;5050550;28;20404;-79
2020/12/26 02:34:28;;;;;;;23.67;8.10;;;2.00;93.60;;;;;;5050539;28;20469;-80
2020/12/26 02:36:53;;;;;;;18.10;8.67;;;2.00;93.90;;;;;;5050060;28;20870;-79
2020/12/26 02:39:19;;;;;;;18.07;8.47;;;2.00;93.90;;;;;;5050780;28;20482;-79
2020/12/26 02:41:47;;;;;;;22.07;8.63;;;2.00;93.80;;;;;;5050424;28;20366;-79
2020/12/26 02:44:12;;;;;;;21.38;9.25;;;2.00;93.60;;;;;;5050725;28;20906;-79
2020/12/26 02:46:38;;;;;;;22.27;10.75;;;2.00;93.80;;;;;;5049943;28;20384;-81
2020/12/26 02:49:04;;;;;;;17.45;9.77;;;2.00;93.80;;;;;;5050629;28;20409;-78
2020/12/26 02:51:29;;;;;;;25.13;10.20;;;2.00;93.70;;;;;;5050625;28;20378;-78
2020/12/26 02:53:55;;;;;;;21.13;10.77;;;1.90;93.90;;;;;;5049262;28;20394;-79
2020/12/26 02:56:21;;;;;;;22.87;10.57;;;1.90;93.80;;;;;;5050200;28;20370;-80
2020/12/26 02:58:47;;;;;;;23.63;10.98;;;1.90;93.90;;;;;;5048665;28;20401;-79
2020/12/26 03:01:13;;;;;;;23.52;11.02;;;1.90;93.80;;;;;;5047724;28;20390;-78
2020/12/26 03:03:38;;;;;;;24.75;12.45;;;1.90;93.80;;;;;;5050590;28;20389;-78
2020/12/26 03:06:04;;;;;;;23.60;12.50;;;1.90;93.80;;;;;;5050211;28;20382;-80
2020/12/26 03:08:30;;;;;;;22.73;12.13;;;1.90;93.80;;;;;;5048313;28;20405;-79
2020/12/26 03:10:55;;;;;;;21.98;12.00;;;1.90;93.90;;;;;;5050319;28;20385;-79
2020/12/26 03:13:21;;;;;;;29.60;12.47;;;1.90;93.90;;;;;;5050035;28;20381;-79
2020/12/26 03:15:47;;;;;;;28.67;14.47;;;1.90;93.90;;;;;;5048945;28;20417;-79
2020/12/26 03:18:12;;;;;;;27.37;13.10;;;1.90;93.80;;;;;;5048399;28;20854;-79
2020/12/26 03:20:38;;;;;;;31.38;13.40;;;1.80;94.00;;;;;;5048993;28;20846;-79
2020/12/26 03:23:04;;;;;;;30.45;13.98;;;1.90;93.90;;;;;;5049987;28;20912;-79
2020/12/26 03:25:29;;;;;;;25.40;13.57;;;1.80;93.90;;;;;;5050300;28;20720;-79
2020/12/26 03:27:55;;;;;;;27.00;14.27;;;1.80;93.90;;;;;;5049538;28;20374;-79
2020/12/26 03:30:21;;;;;;;26.83;13.60;;;1.80;93.80;;;;;;5048940;28;20829;-80
2020/12/26 03:32:46;;;;;;;31.07;13.90;;;1.90;93.90;;;;;;5049821;28;20439;-79
2020/12/26 03:35:12;;;;;;;23.97;13.30;;;1.90;93.60;;;;;;5049917;28;20666;-79
2020/12/26 03:37:38;;;;;;;26.73;12.70;;;1.90;93.60;;;;;;5049652;28;20426;-78
2020/12/26 03:40:08;;;;;;;24.98;12.73;;;1.90;93.50;;;;;;5052869;28;20939;-79
2020/12/26 03:42:34;;;;;;;28.92;12.70;;;1.90;93.40;;;;;;5054208;28;20414;-80
2020/12/26 03:45:00;;;;;;;25.13;12.90;;;1.90;93.60;;;;;;5053896;28;20471;-79
2020/12/26 03:47:25;;;;;;;23.25;11.15;;;1.90;93.60;;;;;;5053414;28;20460;-78
2020/12/26 03:49:51;;;;;;;21.92;11.70;;;1.90;93.30;;;;;;5053746;28;20451;-79
2020/12/26 03:52:17;;;;;;;23.23;11.43;;;2.00;93.30;;;;;;5053772;28;20385;-79
2020/12/26 03:54:42;;;;;;;25.17;11.60;;;2.00;93.20;;;;;;5053668;28;20858;-79
2020/12/26 03:57:08;;;;;;;23.47;10.30;;;2.00;93.30;;;;;;5053733;28;20428;-79
2020/12/26 03:59:33;;;;;;;23.33;11.17;;;1.90;93.00;;;;;;5053866;28;20774;-79
2020/12/26 04:01:59;;;;;;;26.00;10.83;;;2.00;93.10;;;;;;5054009;28;20385;-79
2020/12/26 04:04:58;;;;;;;19.23;9.30;;;2.00;92.90;;;;;;5053693;28;20427;-78
2020/12/26 04:07:24;;;;;;;24.38;10.02;;;2.00;93.00;;;;;;5052619;28;20418;-78
2020/12/26 04:09:49;;;;;;;20.47;9.83;;;2.00;92.90;;;;;;5053529;28;20459;-79
2020/12/26 04:12:15;;;;;;;28.73;9.53;;;2.00;93.00;;;;;;5053296;28;20388;-78
2020/12/26 04:14:40;;;;;;;20.80;8.60;;;2.00;92.90;;;;;;5054101;28;20420;-78
2020/12/26 04:17:06;;;;;;;21.27;8.13;;;2.00;93.00;;;;;;5053040;28;20402;-78
2020/12/26 04:19:32;;;;;;;18.33;7.97;;;2.10;92.60;;;;;;5053190;28;20760;-79
2020/12/26 04:21:57;;;;;;;19.23;7.80;;;2.00;92.70;;;;;;5053491;28;20377;-79
2020/12/26 04:24:23;;;;;;;19.93;8.60;;;2.10;92.30;;;;;;5052766;28;20381;-78
2020/12/26 04:26:49;;;;;;;18.60;8.05;;;2.10;92.60;;;;;;5052994;28;20389;-78
2020/12/26 04:29:15;;;;;;;21.40;8.52;;;2.10;92.30;;;;;;5052892;28;20397;-78
2020/12/26 04:31:41;;;;;;;17.70;7.70;;;2.20;92.10;;;;;;5053416;28;20728;-78
2020/12/26 04:34:07;;;;;;;16.77;7.82;;;2.20;92.10;;;;;;5053105;28;20390;-79
2020/12/26 04:36:32;;;;;;;18.70;8.02;;;2.20;92.00;;;;;;5052890;28;20382;-79
2020/12/26 04:38:58;;;;;;;18.03;8.40;;;2.20;92.20;;;;;;5052139;28;20432;-78
2020/12/26 04:41:24;;;;;;;17.33;8.13;;;2.20;92.10;;;;;;5052944;28;20382;-78
2020/12/26 04:43:50;;;;;;;18.67;8.63;;;2.20;91.90;;;;;;5051263;28;20397;-78
2020/12/26 04:46:19;;;;;;;14.52;7.40;;;2.20;92.20;;;;;;5051342;28;20393;-79
2020/12/26 04:49:04;;;;;;;21.65;8.65;;;2.20;92.00;;;;;;5052604;28;20454;-79
2020/12/26 04:51:41;;;;;;;22.40;9.38;;;2.20;92.20;;;;;;5051660;28;20929;-78
2020/12/26 04:54:11;;;;;;;17.95;9.00;;;2.20;92.50;;;;;;5053233;28;20880;-79
2020/12/26 04:56:42;;;;;;;18.73;9.10;;;2.20;92.40;;;;;;5052475;28;20508;-78
2020/12/26 04:59:10;;;;;;;22.52;10.43;;;2.20;92.50;;;;;;5051314;28;20558;-79
2020/12/26 05:01:38;;;;;;;22.48;11.15;;;2.20;92.50;;;;;;5051152;28;20426;-78
2020/12/26 05:04:04;;;;;;;26.97;13.20;;;2.20;92.70;;;;;;5051417;28;20508;-79
2020/12/26 05:06:31;;;;;;;30.58;14.23;;;2.20;92.60;;;;;;5050824;28;20761;-78
2020/12/26 05:08:56;;;;;;;32.13;14.98;;;2.10;92.90;;;;;;5050620;28;20405;-79
2020/12/26 05:11:22;;;;;;;29.23;15.53;;;2.20;92.80;;;;;;5052176;28;20507;-78
2020/12/26 05:13:48;;;;;;;32.92;16.67;;;2.20;92.90;;;;;;5050863;28;20392;-78
2020/12/26 05:16:13;;;;;;;32.35;17.13;;;2.20;92.90;;;;;;5052470;28;20536;-78
2020/12/26 05:18:39;;;;;;;35.03;18.98;;;2.20;92.90;;;;;;5051952;28;20966;-78
2020/12/26 05:21:05;;;;;;;31.23;17.90;;;2.30;93.00;;;;;;5052073;28;20378;-78
2020/12/26 05:23:31;;;;;;;38.38;18.95;;;2.30;93.10;;;;;;5050604;28;20388;-78
2020/12/26 05:25:57;;;;;;;30.67;18.63;;;2.30;93.10;;;;;;5051841;28;20476;-78
2020/12/26 05:28:33;;;;;;;38.40;18.77;;;2.30;93.10;;;;;;5051355;28;20397;-78
2020/12/26 05:31:06;;;;;;;33.78;19.30;;;2.30;93.00;;;;;;5052035;28;20466;-78
2020/12/26 05:33:34;;;;;;;37.70;19.02;;;2.30;93.20;;;;;;5051781;28;20754;-78
2020/12/26 05:36:04;;;;;;;30.95;18.13;;;2.30;93.40;;;;;;5051724;28;20695;-77
2020/12/26 05:38:30;;;;;;;35.53;19.17;;;2.30;93.20;;;;;;5050252;28;20778;-78
2020/12/26 05:41:01;;;;;;;34.75;18.23;;;2.30;93.20;;;;;;5050236;28;20378;-78
2020/12/26 05:43:32;;;;;;;35.38;19.20;;;2.40;93.30;;;;;;5050421;28;20845;-78
2020/12/26 05:45:58;;;;;;;36.47;20.27;;;2.40;93.30;;;;;;5050277;28;20519;-78
2020/12/26 05:48:27;;;;;;;35.60;20.55;;;2.40;93.30;;;;;;5049904;28;20493;-78
2020/12/26 05:51:00;;;;;;;36.58;20.60;;;2.40;93.40;;;;;;5051407;28;20390;-78
2020/12/26 05:53:28;;;;;;;41.47;21.67;;;2.40;93.40;;;;;;5051809;28;20915;-78
2020/12/26 05:55:54;;;;;;;36.40;20.25;;;2.40;93.40;;;;;;5050046;28;20380;-79
2020/12/26 05:58:23;;;;;;;40.25;19.70;;;2.40;93.10;;;;;;5050829;28;20394;-79
2020/12/26 06:00:50;;;;;;;36.03;19.10;;;2.40;93.20;;;;;;5051298;28;20487;-78
2020/12/26 06:03:23;;;;;;;29.98;17.33;;;2.40;93.30;;;;;;5049529;28;20387;-78
2020/12/26 06:05:51;;;;;;;29.17;16.77;;;2.40;93.10;;;;;;5051483;28;20377;-78
2020/12/26 06:08:17;;;;;;;30.30;15.50;;;2.40;93.10;;;;;;5050565;28;20428;-78
2020/12/26 06:10:58;;;;;;;29.30;15.67;;;2.40;92.80;;;;;;5051500;28;20507;-78
2020/12/26 06:13:29;;;;;;;27.60;14.55;;;2.50;93.00;;;;;;5049508;28;20388;-78
2020/12/26 06:16:20;;;;;;;26.63;13.40;;;2.50;92.80;;;;;;5051241;28;20746;-78
2020/12/26 06:18:59;;;;;;;23.65;14.23;;;2.50;92.80;;;;;;5049839;28;20752;-78
2020/12/26 06:21:26;;;;;;;25.92;13.13;;;2.50;92.90;;;;;;5049490;28;20460;-79
2020/12/26 06:23:53;;;;;;;24.85;12.48;;;2.50;93.00;;;;;;5049961;28;20442;-79
2020/12/26 06:26:19;;;;;;;21.55;12.52;;;2.50;92.70;;;;;;5050930;28;20769;-78
2020/12/26 06:28:46;;;;;;;25.55;13.52;;;2.50;92.90;;;;;;5050664;28;20428;-78
2020/12/26 06:31:15;;;;;;;25.20;12.77;;;2.50;93.00;;;;;;5049309;28;20393;-79
2020/12/26 06:33:43;;;;;;;24.77;12.60;;;2.50;93.00;;;;;;5050990;28;20412;-78
2020/12/26 06:36:10;;;;;;;23.80;12.93;;;2.50;93.00;;;;;;5050562;28;20490;-79
2020/12/26 06:38:37;;;;;;;24.83;12.98;;;2.50;92.90;;;;;;5049176;28;20427;-77
2020/12/26 06:41:07;;;;;;;23.05;12.50;;;2.60;92.80;;;;;;5048249;28;20389;-78
2020/12/26 06:43:41;;;;;;;21.10;12.52;;;2.50;93.00;;;;;;5049149;28;20870;-79
2020/12/26 06:46:13;;;;;;;21.27;13.40;;;2.50;92.90;;;;;;5050738;28;20388;-78
2020/12/26 06:48:39;;;;;;;31.13;13.15;;;2.50;92.90;;;;;;5050489;28;20419;-79
2020/12/26 06:51:36;;;;;;;21.33;13.38;;;2.40;93.00;;;;;;5049370;28;20742;-78
2020/12/26 06:54:07;;;;;;;24.35;13.25;;;2.50;93.00;;;;;;5045719;28;20504;-78
2020/12/26 06:56:36;;;;;;;24.23;14.00;;;2.40;92.90;;;;;;5050565;28;20427;-79
2020/12/26 06:59:02;;;;;;;25.42;14.50;;;2.40;93.00;;;;;;5050352;28;20549;-78
2020/12/26 07:01:28;;;;;;;23.83;14.13;;;2.40;93.10;;;;;;5050216;28;20705;-78
2020/12/26 07:04:10;;;;;;;27.48;15.30;;;2.40;93.10;;;;;;5049189;28;20424;-78
2020/12/26 07:06:39;;;;;;;29.63;16.35;;;2.40;93.20;;;;;;5048781;28;20505;-77
2020/12/26 07:09:05;;;;;;;32.97;17.05;;;2.40;93.10;;;;;;5050350;28;20436;-79
2020/12/26 07:11:31;;;;;;;32.30;17.48;;;2.40;93.20;;;;;;5050032;28;20825;-78
2020/12/26 07:13:58;;;;;;;37.15;18.73;;;2.40;93.30;;;;;;5050040;28;20378;-78
2020/12/26 07:16:47;;;;;;;37.15;19.13;;;2.40;93.30;;;;;;5049823;28;20389;-78
2020/12/26 07:19:35;;;;;;;34.45;18.55;;;2.50;93.30;;;;;;5048640;28;20458;-79
2020/12/26 07:22:02;;;;;;;36.38;19.17;;;2.40;93.20;;;;;;5048953;28;20451;-78
2020/12/26 07:24:40;;;;;;;40.67;17.48;;;2.40;93.40;;;;;;5049955;28;20464;-79
2020/12/26 07:27:23;;;;;;;34.93;16.77;;;2.40;93.50;;;;;;5049689;28;20531;-78
2020/12/26 07:29:55;;;;;;;30.77;15.13;;;2.40;93.30;;;;;;5049969;28;20437;-78
2020/12/26 07:32:39;;;;;;;28.13;15.65;;;2.40;93.10;;;;;;5050506;28;20440;-78
2020/12/26 07:35:11;;;;;;;26.33;14.82;;;2.40;93.00;;;;;;5048837;28;20415;-78
2020/12/26 07:37:40;;;;;;;30.63;15.10;;;2.50;92.90;;;;;;5049427;28;20424;-77
2020/12/26 07:40:07;;;;;;;24.55;13.48;;;2.40;92.90;;;;;;5048821;28;20386;-78
2020/12/26 07:42:34;;;;;;;28.92;15.10;;;2.40;92.90;;;;;;5048529;28;20404;-78
2020/12/26 07:45:09;;;;;;;24.63;13.65;;;2.40;92.90;;;;;;5049097;28;20407;-78
2020/12/26 07:47:40;;;;;;;28.65;13.88;;;2.50;92.50;;;;;;5047970;28;20450;-78
2020/12/26 07:50:05;;;;;;;28.95;13.50;;;2.50;92.60;;;;;;5048653;28;20446;-78
2020/12/26 07:52:31;;;;;;;22.80;14.00;;;2.40;92.70;;;;;;5049758;28;20390;-77
2020/12/26 07:54:58;;;;;;;28.55;14.43;;;2.40;92.70;;;;;;5050120;28;20407;-78
2020/12/26 07:57:27;;;;;;;26.67;12.85;;;2.40;92.80;;;;;;5047737;28;20888;-78
2020/12/26 07:59:54;;;;;;;28.63;14.57;;;2.40;92.90;;;;;;5049681;28;20421;-79
2020/12/26 08:02:19;;;;;;;24.70;13.18;;;2.40;92.90;;;;;;5047339;28;20393;-78
2020/12/26 08:04:46;;;;;;;26.50;12.98;;;2.50;92.60;;;;;;5048259;28;20443;-78
2020/12/26 08:07:14;;;;;;;23.77;13.00;;;2.50;92.70;;;;;;5048168;28;20386;-79
2020/12/26 08:09:51;;;;;;;22.33;12.87;;;2.50;92.30;;;;;;5049607;28;20530;-79
2020/12/26 08:12:18;;;;;;;27.77;12.90;;;2.50;92.50;;;;;;5049958;28;20607;-78
2020/12/26 08:14:43;;;;;;;22.25;12.95;;;2.50;92.30;;;;;;5049897;28;20733;-78
2020/12/26 08:17:12;;;;;;;24.73;13.20;;;2.50;92.20;;;;;;5049380;28;20398;-78
2020/12/26 08:19:38;;;;;;;28.58;13.48;;;2.60;92.20;;;;;;5049463;28;20441;-78
2020/12/26 08:22:04;;;;;;;23.08;12.95;;;2.60;91.90;;;;;;5049787;28;20388;-78
2020/12/26 08:24:29;;;;;;;22.55;13.27;;;2.60;92.10;;;;;;5049806;28;20390;-78
2020/12/26 08:26:57;;;;;;;30.77;14.47;;;2.50;91.90;;;;;;5052664;28;20450;-79
2020/12/26 08:29:29;;;;;;;32.78;15.30;;;2.60;92.10;;;;;;5053277;28;20409;-78
2020/12/26 08:32:00;;;;;;;27.48;14.82;;;2.60;92.10;;;;;;5052008;28;20476;-78
2020/12/26 08:34:52;;;;;;;24.77;14.30;;;2.70;92.00;;;;;;5053328;28;20487;-78
2020/12/26 08:37:24;;;;;;;24.98;12.55;;;2.60;91.90;;;;;;5052818;28;20536;-78
2020/12/26 08:39:58;;;;;;;28.85;14.52;;;2.60;91.80;;;;;;5053569;28;20453;-78
2020/12/26 08:42:25;;;;;;;28.17;13.88;;;2.60;91.80;;;;;;5053087;28;20405;-78
2020/12/26 08:44:51;;;;;;;25.08;13.38;;;2.60;91.80;;;;;;5053210;28;20376;-77
2020/12/26 08:47:31;;;;;;;22.90;12.33;;;2.70;91.90;;;;;;5052889;28;20873;-79
2020/12/26 08:49:57;;;;;;;19.60;10.88;;;2.60;91.70;;;;;;5052914;28;20480;-79
2020/12/26 08:52:26;;;;;;;23.67;12.07;;;2.70;91.40;;;;;;5052977;28;20381;-78
2020/12/26 08:55:07;;;;;;;22.17;11.35;;;2.60;91.30;;;;;;5053053;28;20422;-77
2020/12/26 08:57:33;;;;;;;18.92;11.88;;;2.60;91.70;;;;;;5052651;28;20498;-78
2020/12/26 09:00:18;;;;;;;17.55;10.65;;;2.70;91.00;;;;;;5051418;28;20413;-78
2020/12/26 09:02:48;;;;;;;16.45;9.88;;;2.70;90.80;;;;;;5052658;28;20446;-78
2020/12/26 09:05:29;;;;;;;14.70;8.38;;;2.80;90.40;;;;;;5053002;28;20564;-77
2020/12/26 09:08:07;;;;;;;19.03;10.83;;;2.80;89.70;;;;;;5051983;28;20454;-78
2020/12/26 09:10:34;;;;;;;16.55;9.05;;;2.90;90.10;;;;;;5052356;28;20446;-78
2020/12/26 09:13:04;;;;;;;17.17;8.80;;;2.90;89.70;;;;;;5050882;28;20439;-78
2020/12/26 09:15:54;;;;;;;18.35;8.60;;;2.90;89.40;;;;;;5052363;28;20756;-77
2020/12/26 09:18:25;;;;;;;13.30;7.93;;;2.90;89.30;;;;;;5051689;28;20508;-76
2020/12/26 09:20:55;;;;;;;17.33;8.27;;;2.90;89.60;;;;;;5051906;28;20525;-77
2020/12/26 09:23:22;;;;;;;16.05;8.05;;;2.80;89.40;;;;;;5052262;28;20821;-78
2020/12/26 09:25:48;;;;;;;15.55;8.00;;;2.90;88.70;;;;;;5050664;28;20744;-79
2020/12/26 09:28:15;;;;;;;16.40;7.93;;;2.90;88.70;;;;;;5051755;28;20422;-77
2020/12/26 09:30:42;;;;;;;19.63;8.57;;;2.90;88.80;;;;;;5051847;28;20458;-77
2020/12/26 09:33:07;;;;;;;16.67;7.50;;;2.90;88.70;;;;;;5052068;28;20385;-77
2020/12/26 09:35:34;;;;;;;13.33;7.70;;;2.90;88.30;;;;;;5051752;28;20408;-77
2020/12/26 09:38:00;;;;;;;17.42;8.50;;;2.90;88.10;;;;;;5049550;28;20436;-77
2020/12/26 09:40:34;;;;;;;12.97;7.27;;;3.00;88.10;;;;;;5051704;28;20397;-78
2020/12/26 09:43:01;;;;;;;13.63;8.20;;;3.00;88.10;;;;;;5051866;28;20444;-78
2020/12/26 09:45:27;;;;;;;15.90;8.10;;;3.00;87.80;;;;;;5050201;28;20390;-78
2020/12/26 09:47:57;;;;;;;17.00;8.70;;;3.10;87.80;;;;;;5050886;28;20391;-78
2020/12/26 09:50:24;;;;;;;14.10;8.07;;;3.10;88.20;;;;;;5051786;28;20393;-78
2020/12/26 09:52:50;;;;;;;16.35;7.90;;;3.00;88.10;;;;;;5051398;28;20392;-78
2020/12/26 09:55:17;;;;;;;16.48;8.32;;;3.00;88.20;;;;;;5050678;28;21547;-78
2020/12/26 09:57:43;;;;;;;14.00;8.63;;;3.00;88.20;;;;;;5050785;28;20405;-78
2020/12/26 10:00:08;;;;;;;15.30;8.38;;;3.00;88.20;;;;;;5051523;28;20386;-77
2020/12/26 10:02:34;;;;;;;17.92;8.52;;;3.00;88.20;;;;;;5051141;28;20385;-78
2020/12/26 10:05:04;;;;;;;15.27;8.25;;;3.10;88.00;;;;;;5051479;28;20773;-78
2020/12/26 10:07:32;;;;;;;14.32;8.50;;;3.10;87.80;;;;;;5049324;28;20830;-77
2020/12/26 10:09:58;;;;;;;15.20;8.70;;;3.10;87.40;;;;;;5051162;28;20544;-78
2020/12/26 10:12:24;;;;;;;20.42;8.77;;;3.20;87.50;;;;;;5051263;28;20421;-79
2020/12/26 10:14:50;;;;;;;16.08;8.40;;;3.30;87.10;;;;;;5051025;28;20869;-78
2020/12/26 10:17:15;;;;;;;16.45;8.45;;;3.10;87.20;;;;;;5049452;28;20409;-78
2020/12/26 10:19:41;;;;;;;16.30;8.45;;;3.20;87.40;;;;;;5050768;28;20409;-79
2020/12/26 10:22:06;;;;;;;15.48;8.02;;;3.30;87.40;;;;;;5051232;28;20447;-78
2020/12/26 10:24:32;;;;;;;17.55;8.43;;;3.20;86.70;;;;;;5051028;28;20465;-78
2020/12/26 10:26:57;;;;;;;17.45;8.93;;;3.30;87.60;;;;;;5050320;28;20373;-78
2020/12/26 10:29:23;;;;;;;15.23;8.52;;;3.30;87.60;;;;;;5049342;28;20416;-78
2020/12/26 10:31:48;;;;;;;16.98;8.85;;;3.40;86.60;;;;;;5050875;28;20842;-79
2020/12/26 10:34:14;;;;;;;15.27;8.13;;;3.40;86.20;;;;;;5050570;28;20442;-78
2020/12/26 10:36:43;;;;;;;12.88;7.30;;;3.50;86.80;;;;;;5050239;28;20392;-78
2020/12/26 10:39:09;;;;;;;15.18;7.65;;;3.70;85.70;;;;;;5050657;28;20847;-77
2020/12/26 10:41:35;;;;;;;16.75;8.43;;;3.60;85.10;;;;;;5051047;28;20384;-77
2020/12/26 10:44:00;;;;;;;13.35;7.07;;;3.50;85.70;;;;;;5050517;28;20381;-79
2020/12/26 10:46:26;;;;;;;17.58;7.75;;;3.40;85.40;;;;;;5049179;28;20396;-78
2020/12/26 10:48:52;;;;;;;14.23;7.70;;;3.40;85.60;;;;;;5048292;28;20727;-78
2020/12/26 10:51:17;;;;;;;13.27;7.13;;;3.40;85.20;;;;;;5050123;28;20389;-80
2020/12/26 10:53:43;;;;;;;14.77;7.20;;;3.40;85.20;;;;;;5050139;28;20385;-80
2020/12/26 10:56:08;;;;;;;15.83;6.80;;;3.40;85.20;;;;;;5049045;28;20889;-79
2020/12/26 10:58:34;;;;;;;15.00;6.77;;;3.40;85.20;;;;;;5050170;28;20754;-78
2020/12/26 11:01:00;;;;;;;17.05;7.03;;;3.50;84.70;;;;;;5048910;28;20550;-81
2020/12/26 11:03:25;;;;;;;15.05;7.07;;;3.50;84.70;;;;;;5050230;28;20378;-79
2020/12/26 11:05:51;;;;;;;11.63;6.72;;;3.80;85.10;;;;;;5050302;28;20451;-79
2020/12/26 11:08:17;;;;;;;13.65;6.60;;;3.70;84.20;;;;;;5048595;28;20393;-79
2020/12/26 11:10:44;;;;;;;16.13;6.32;;;3.80;85.10;;;;;;5050502;28;20423;-80
2020/12/26 11:13:10;;;;;;;15.35;6.18;;;3.90;85.00;;;;;;5049223;28;20437;-77
2020/12/26 11:15:35;;;;;;;12.03;6.17;;;3.90;83.10;;;;;;5050231;28;20382;-79
2020/12/26 11:18:02;;;;;;;10.87;5.30;;;3.80;83.20;;;;;;5049924;28;20884;-79
2020/12/26 11:20:28;;;;;;;13.50;5.95;;;3.70;83.20;;;;;;5049198;28;20963;-79
2020/12/26 11:22:53;;;;;;;12.90;5.23;;;3.90;84.20;;;;;;5050392;28;20397;-79
2020/12/26 11:25:19;;;;;;;9.63;5.33;;;3.80;83.60;;;;;;5050590;28;20868;-78
2020/12/26 11:27:44;;;;;;;11.33;5.27;;;3.70;83.20;;;;;;5049814;28;20377;-82
2020/12/26 11:30:10;;;;;;;14.17;5.37;;;3.70;83.40;;;;;;5050288;28;20412;-77
2020/12/26 11:32:36;;;;;;;10.77;4.60;;;3.70;83.60;;;;;;5050167;28;20382;-76
2020/12/26 11:35:02;;;;;;;13.80;5.50;;;3.90;82.80;;;;;;5050460;28;20377;-81
2020/12/26 11:37:30;;;;;;;12.15;5.32;;;3.90;83.40;;;;;;5049452;28;20390;-83
2020/12/26 11:39:55;;;;;;;15.27;5.43;;;4.00;82.90;;;;;;5050290;28;20447;-83
2020/12/26 11:42:21;;;;;;;10.87;5.60;;;4.10;83.70;;;;;;5048591;28;20951;-83
2020/12/26 11:44:46;;;;;;;13.33;5.10;;;4.20;82.90;;;;;;5049933;28;20382;-82
2020/12/26 11:47:12;;;;;;;15.80;5.40;;;4.20;82.60;;;;;;5048467;28;20411;-84
2020/12/26 11:49:38;;;;;;;12.90;4.63;;;4.30;82.20;;;;;;5049895;28;20415;-82
2020/12/26 11:52:03;;;;;;;11.33;5.10;;;4.30;82.70;;;;;;5050947;28;20384;-83
2020/12/26 11:54:29;;;;;;;11.23;4.57;;;4.20;81.70;;;;;;5050148;28;20770;-85
2020/12/26 11:56:54;;;;;;;11.10;5.17;;;4.20;82.50;;;;;;5049717;28;20389;-82
2020/12/26 11:59:21;;;;;;;9.90;4.60;;;4.30;81.80;;;;;;5049971;28;20484;-81
2020/12/26 12:01:46;;;;;;;12.80;5.60;;;4.30;81.50;;;;;;5053786;28;20400;-84
2020/12/26 12:04:12;;;;;;;9.53;4.50;;;4.40;81.60;;;;;;5053425;28;20374;-83
2020/12/26 12:06:38;;;;;;;9.98;4.65;;;4.60;81.40;;;;;;5052007;28;20782;-83
2020/12/26 12:09:04;;;;;;;10.77;4.90;;;4.50;80.40;;;;;;5052102;28;20409;-82
2020/12/26 12:11:30;;;;;;;9.35;4.75;;;4.40;80.90;;;;;;5052278;28;20450;-83
2020/12/26 12:13:56;;;;;;;11.43;4.22;;;4.40;81.30;;;;;;5051965;28;20419;-84
2020/12/26 12:16:22;;;;;;;12.35;4.43;;;4.40;80.30;;;;;;5053289;28;20397;-86
2020/12/26 12:18:47;;;;;;;9.05;3.92;;;4.40;80.60;;;;;;5051987;28;20397;-85
2020/12/26 12:21:13;;;;;;;9.73;4.07;;;4.40;80.40;;;;;;5052937;28;20450;-85
2020/12/26 12:23:38;;;;;;;10.57;4.27;;;4.30;79.80;;;;;;5052180;28;20866;-84
2020/12/26 12:26:04;;;;;;;13.50;4.37;;;4.10;80.00;;;;;;5051848;28;20563;-85
2020/12/26 12:28:30;;;;;;;7.93;3.77;;;4.20;80.90;;;;;;5050174;28;20413;-86
2020/12/26 12:30:55;;;;;;;9.03;3.70;;;4.20;80.50;;;;;;5051993;28;20409;-85
2020/12/26 12:33:22;;;;;;;6.83;3.80;;;4.20;80.00;;;;;;5051135;28;20392;-86
2020/12/26 12:35:47;;;;;;;9.20;3.53;;;4.30;79.90;;;;;;5040612;28;20385;-86
2020/12/26 12:38:13;;;;;;;6.77;3.37;;;4.40;79.30;;;;;;5033514;28;20382;-85
2020/12/26 12:40:39;;;;;;;10.07;3.30;;;4.40;79.20;;;;;;5033950;28;20393;-85
2020/12/26 12:43:04;;;;;;;7.20;3.20;;;4.20;79.20;;;;;;5034212;28;20393;-85
2020/12/26 12:45:30;;;;;;;8.93;3.28;;;4.30;79.80;;;;;;5051931;28;20416;-85